Type Rating

Flugschule

Flugschule

Wir bieten eine professionelle und umfassende Ausbildung.

Flugwetter Augsburg

[Quelle: ADDS]
METAR
EDMA 161920Z AUTO 06004KT 9999 NCD 19/13 Q1015 =
EDMA 161700Z 1618/1703 VRB03KT CAVOK
TAF
EDMA 161700Z 1618/1703 VRB03KT CAVOK =

Kontakt

Type Rating

aäb cde fgh ijk lmn oöp qrsß tuü vwx yz AÄBC DEF GHI JKL MNO ÖPQ RST UÜV WXYZ ! "§ $%& /() =? * '<>

|; ²³~ @`´ ©«» ¼× {} aäb cde fgh ijk lmn oöp qrsß tuü vwx yz AÄBC DEF GHI JKL MNO ÖPQ RST UÜV WXYZ ! "§ $%& /() =? * '<>

|; ²³~ @`´ ©«» ¼× {} aäb cde fgh ijk lmn oöp qrsß tuü vwx yz AÄBC DEF GHI JKL MNO ÖPQ RST UÜV WXYZ ! "§ $%& /() =? * '<>

|; ²³~ @`´ ©«» ¼× {} aäb cde fgh ijk lmn oöp qrsß tuü vwx yz AÄBC DEF GHI JKL MNO ÖPQ RST UÜV WXYZ ! "§ $%& /() =? * '<>

|; ²³~ @`´ ©«» ¼× {} aäb cde fgh ijk lmn oöp qrsß tuü vwx yz AÄBC DEF GHI JKL MNO ÖPQ RST UÜV WXYZ ! "§ $%& /() =? * '<> |; ²³~ @`´ ©«» ¼× {} aäb cde fgh ijk lmn oöp qrsß tuü vwx yz AÄBC DEF GHI JKL MNO ÖPQ RST UÜV WXYZ ! "§ $%& /() =? * '<> |; ²³~ @`´ ©«» ¼× {}aäb cde fgh ijk lmn oöp qrsß tuü vwx yz AÄBC DEF GHI JKL MNO ÖPQ RST UÜV WXYZ ! "§